Terminal Aerodrome Forecast
Issued by NWS

Current Version | Previous Version | Text Only | Print | Product List | Glossary On
Versions: 1 2 3 4 5 6 7 8 9 10 11 12 13
000
FTAK31 PAJN 221100 RRA
TAFAPG
TAF
PAPG 221142Z 2212/2312 22004KT P6SM -SHRA FEW003 OVC020
      TEMPO 2212/2216 00000KT 4SM BR BKN003
     FM221900 VRB03KT P6SM -SHRA BKN035 OVC050
     FM230000 06005KT P6SM BKN050
      AMD LTD TO CLD VIS AND WIND 2212/2215=

USA.gov is the U.S. government's official web portal to all federal, state and local government web resources and services.